Fonda, Vermont
Current Conditions -  °F | °C
As of 7:55 PM on Wednesday 22 Oct 2014 (Local Time) from KFSO Reporting Station
Broken Clouds Broken Clouds  
Wind Chill: 43°   Ceiling: 9000
Heat Index: 49°   Visibility: 10mi
Dew Point: 38°   Wind: 18mph
Humidity: 65%   Direction: 20°NNE
Pressure: 30.16"   Gusts: 25mph
Location:  44.9002°N, 73.1493°W
Report Text: KFSO 222355Z AUTO 02016G22KT 10SM BKN090 10/03 A3016 RMK AO2 T00960034 10130 20096
Loading
Personal Weather Stations






























Interactive Weather Map
Tropical Storm Tracking
New forecast layout! Learn more

10-Day Weather Forecast

Advertisements
Track Severe Weather on mobile